Aviation Digital Data Service (ADDS)

Output produced by METARs form (1152 UTC 25 June 2018)
found at http://www.aviationweather.gov/adds/metars/
 
GCLP 251130Z 03012KT 360V070 9999 FEW025 24/18 Q1019 NOSIG
TAF GCLP 250800Z 2509/2609 02018KT CAVOK TX26/2514Z TN20/2605Z 
     PROB30 
     TEMPO 2512/2521 02018G28KT
       
EGTE 251120Z 19007KT 140V230 CAVOK 25/12 Q1026
TAF EGTE 251105Z 2512/2521 19010KT CAVOK 
     BECMG 2519/2521 VRB03KT
       
EGGD 251120Z AUTO VRB03KT 9999 NCD 25/08 Q1027
TAF EGGD 251100Z 2512/2612 VRB05KT CAVOK